This is the latest recevied weather packets stored in our database for station/object IW1RID-3. If no packets are shown the sender has not sent any weather packets the latest 10 day(s).
| Time | Temp. | Humidity | Pressure | Rain* | Wind** | Luminosity | Snow |
|---|---|---|---|---|---|---|---|
| 1777287624 | 19.44° C | 65% | 1078.1 hPa | - | - | - | - |
| 1777286419 | 20° C | 63% | 1078.3 hPa | - | - | - | - |
| 1777285213 | 18.89° C | 67% | 1078.4 hPa | - | - | - | - |
| 1777284009 | 18.89° C | 64% | 1078.4 hPa | - | - | - | - |
| 1777282806 | 18.89° C | 66% | 1078.6 hPa | - | - | - | - |
| 1777281600 | 18.89° C | 65% | 1078.6 hPa | - | - | - | - |
| 1777280396 | 18.89° C | 66% | 1078.7 hPa | - | - | - | - |
| 1777279192 | 18.89° C | 66% | 1078.7 hPa | - | - | - | - |
| 1777277988 | 18.33° C | 67% | 1078.7 hPa | - | - | - | - |
| 1777276782 | 17.78° C | 70% | 1078.5 hPa | - | - | - | - |
| 1777275579 | 17.22° C | 72% | 1078.3 hPa | - | - | - | - |
| 1777274373 | 16.67° C | 72% | 1078.4 hPa | - | - | - | - |
| 1777273169 | 15.56° C | 75% | 1078.4 hPa | - | - | - | - |
| 1777271965 | 15.56° C | 75% | 1078.2 hPa | - | - | - | - |
| 1777270761 | 15° C | 76% | 1078.3 hPa | - | - | - | - |
| 1777269556 | 15° C | 77% | 1078.2 hPa | - | - | - | - |
| 1777268351 | 15° C | 77% | 1078 hPa | - | - | - | - |
| 1777267148 | 14.44° C | 78% | 1077.9 hPa | - | - | - | - |
| 1777265943 | 15° C | 78% | 1077.7 hPa | - | - | - | - |
| 1777264738 | 15.56° C | 78% | 1077.7 hPa | - | - | - | - |
| 1777263534 | 15.56° C | 81% | 1077.5 hPa | - | - | - | - |
| 1777262330 | 15.56° C | 83% | 1077.5 hPa | - | - | - | - |
| 1777261125 | 15.56° C | 80% | 1077.6 hPa | - | - | - | - |
| 1777259921 | 15.56° C | 82% | 1077.5 hPa | - | - | - | - |
| 1777258716 | 15.56° C | 83% | 1077.5 hPa | - | - | - | - |
* Rain since midnight (hover to see other rain measurements)
** Current wind speed in m/s (hover to see current wind gust speed)